This is the latest recevied weather packets stored in our database for station/object OK0EK-11. If no packets are shown the sender has not sent any weather packets the latest 10 day(s).
| Time | Temp. | Humidity | Pressure | Rain* | Wind** | Luminosity | Snow |
|---|---|---|---|---|---|---|---|
| 1787658213 | 12.78° C | 72% | 1017 hPa | - | - | - | - |
| 1787657613 | 11.67° C | 77% | 1017 hPa | - | - | - | - |
| 1787657013 | 11.67° C | 77% | 1017.2 hPa | - | - | - | - |
| 1787656413 | 11.11° C | 79% | 1017.1 hPa | - | - | - | - |
| 1787655814 | 12.22° C | 73% | 1017.1 hPa | - | - | - | - |
| 1787655214 | 11.67° C | 75% | 1017.2 hPa | - | - | - | - |
| 1787654614 | 12.22° C | 74% | 1017.3 hPa | - | - | - | - |
| 1787654014 | 13.33° C | 66% | 1017.2 hPa | - | - | - | - |
| 1787653415 | 12.78° C | 69% | 1017.4 hPa | - | - | - | - |
| 1787652815 | 10.56° C | 83% | 1017.4 hPa | - | - | - | - |
| 1787652215 | 10° C | 84% | 1017.5 hPa | - | - | - | - |
| 1787651616 | 11.11° C | 79% | 1017.5 hPa | - | - | - | - |
| 1787651015 | 11.11° C | 78% | 1017.5 hPa | - | - | - | - |
| 1787650416 | 10.56° C | 82% | 1017.7 hPa | - | - | - | - |
| 1787649816 | 10.56° C | 84% | 1017.6 hPa | - | - | - | - |
| 1787649216 | 8.89° C | 91% | 1017.7 hPa | - | - | - | - |
| 1787648616 | 9.44° C | 88% | 1017.6 hPa | - | - | - | - |
| 1787648016 | 10° C | 82% | 1017.5 hPa | - | - | - | - |
| 1787647416 | 11.11° C | 78% | 1017.5 hPa | - | - | - | - |
| 1787646817 | 12.22° C | 72% | 1017.3 hPa | - | - | - | - |
| 1787646217 | 13.33° C | 67% | 1017.3 hPa | - | - | - | - |
| 1787645617 | 15° C | 59% | 1017.1 hPa | - | - | - | - |
| 1787645017 | 15° C | 59% | 1017 hPa | - | - | - | - |
| 1787644417 | 15.56° C | 59% | 1017.1 hPa | - | - | - | - |
| 1787643818 | 14.44° C | 60% | 1017.2 hPa | - | - | - | - |
* Rain since midnight (hover to see other rain measurements)
** Current wind speed in m/s (hover to see current wind gust speed)